createdAt,value
2023-04-22T00:00:33.310Z,5.60
2023-04-22T00:03:23.474Z,5.72
2023-04-22T00:06:12.355Z,5.60
2023-04-22T00:09:00.912Z,5.20
2023-04-22T00:11:49.398Z,4.57
2023-04-22T00:14:39.533Z,5.90
2023-04-22T00:17:28.073Z,5.72
2023-04-22T00:20:16.788Z,5.05
2023-04-22T00:23:05.884Z,5.15
2023-04-22T00:25:57.680Z,5.07
2023-04-22T00:28:46.129Z,4.15
2023-04-22T00:31:36.004Z,4.32
2023-04-22T00:34:24.703Z,3.55
2023-04-22T00:37:13.509Z,3.03
2023-04-22T00:40:03.154Z,2.70
2023-04-22T00:42:52.380Z,3.20
2023-04-22T00:45:42.906Z,2.90
2023-04-22T00:48:33.789Z,3.53
2023-04-22T00:51:22.922Z,4.07
2023-04-22T00:54:11.522Z,3.45
2023-04-22T00:57:00.772Z,3.25
2023-04-22T00:59:50.273Z,3.17
2023-04-22T01:02:40.043Z,2.83
2023-04-22T01:05:32.712Z,2.88
2023-04-22T01:08:21.130Z,2.97
2023-04-22T01:11:09.637Z,2.55
2023-04-22T01:13:58.080Z,2.65
2023-04-22T01:16:48.287Z,2.38
2023-04-22T01:19:38.504Z,4.32
2023-04-22T01:22:36.656Z,3.17
2023-04-22T01:25:27.441Z,2.60
2023-04-22T01:28:18.365Z,2.63
2023-04-22T01:31:07.258Z,2.80
2023-04-22T01:33:56.469Z,2.90
2023-04-22T01:36:45.724Z,2.60
2023-04-22T01:39:36.971Z,2.83
2023-04-22T01:42:27.434Z,3.80
2023-04-22T01:45:17.426Z,3.25
2023-04-22T01:48:07.448Z,2.97
2023-04-22T01:50:56.300Z,2.80
2023-04-22T01:53:45.209Z,2.78
2023-04-22T01:56:33.701Z,2.60
2023-04-22T01:59:23.758Z,2.70
2023-04-22T02:02:12.385Z,2.42
2023-04-22T02:05:01.307Z,2.78
2023-04-22T02:07:53.314Z,2.72
2023-04-22T02:11:07.468Z,2.72
2023-04-22T02:13:56.998Z,3.00
2023-04-22T02:16:48.050Z,2.40
2023-04-22T02:19:36.688Z,2.63
2023-04-22T02:22:25.634Z,3.25
2023-04-22T02:25:14.209Z,3.10
2023-04-22T02:28:02.834Z,2.88
2023-04-22T02:30:51.383Z,3.78
2023-04-22T02:33:41.271Z,4.05
2023-04-22T02:36:31.888Z,4.28
2023-04-22T02:39:20.666Z,4.15
2023-04-22T02:42:09.744Z,5.07
2023-04-22T02:44:58.158Z,4.45
2023-04-22T02:47:46.702Z,4.88
2023-04-22T02:50:38.065Z,5.05
2023-04-22T02:53:26.690Z,4.55
2023-04-22T02:56:15.111Z,4.50
2023-04-22T02:59:03.716Z,4.63
2023-04-22T03:01:52.301Z,4.32
2023-04-22T03:05:01.971Z,4.13
2023-04-22T03:07:54.405Z,4.93
2023-04-22T03:10:43.413Z,4.65
2023-04-22T03:13:31.991Z,4.15
2023-04-22T03:16:20.632Z,4.50
2023-04-22T03:19:09.271Z,5.05
2023-04-22T03:21:59.184Z,5.00
2023-04-22T03:24:49.674Z,5.15
2023-04-22T03:27:38.408Z,4.95
2023-04-22T03:30:27.835Z,5.00
2023-04-22T03:33:17.155Z,5.10
2023-04-22T03:36:12.575Z,4.80
2023-04-22T03:39:01.069Z,4.82
2023-04-22T03:41:52.179Z,5.10
2023-04-22T03:44:40.770Z,5.40
2023-04-22T03:47:29.681Z,5.30
2023-04-22T03:50:24.925Z,5.28
2023-04-22T03:53:14.957Z,4.97
2023-04-22T03:56:03.609Z,5.45
2023-04-22T03:58:56.247Z,5.18
2023-04-22T04:01:44.717Z,4.57
2023-04-22T04:04:34.909Z,4.38
2023-04-22T04:07:23.636Z,3.55
2023-04-22T04:10:13.240Z,4.68
2023-04-22T04:13:01.807Z,4.47
2023-04-22T04:15:58.427Z,5.38
2023-04-22T04:18:51.203Z,4.47
2023-04-22T04:21:42.279Z,4.60
2023-04-22T04:24:31.253Z,5.20
2023-04-22T04:27:27.234Z,4.82
2023-04-22T04:30:17.693Z,5.03
2023-04-22T04:33:12.384Z,5.45
2023-04-22T04:36:03.029Z,5.03
2023-04-22T04:38:55.705Z,5.50
2023-04-22T04:41:45.019Z,5.40
2023-04-22T04:44:33.820Z,4.85
2023-04-22T04:47:24.888Z,5.55
2023-04-22T04:50:18.876Z,4.82
2023-04-22T04:53:07.375Z,4.72
2023-04-22T04:56:00.364Z,5.20
2023-04-22T04:58:49.771Z,4.63
2023-04-22T05:01:44.867Z,5.28
2023-04-22T05:04:34.836Z,5.32
2023-04-22T05:07:24.976Z,4.38
2023-04-22T05:10:14.801Z,4.38
2023-04-22T05:13:04.447Z,4.90
2023-04-22T05:15:53.649Z,4.82
2023-04-22T05:18:42.549Z,4.75
2023-04-22T05:21:32.682Z,5.00
2023-04-22T05:24:23.295Z,4.50
2023-04-22T05:27:12.604Z,3.97
2023-04-22T05:30:01.207Z,4.20
2023-04-22T05:32:53.105Z,3.80
2023-04-22T05:35:41.797Z,4.80
2023-04-22T05:38:31.218Z,4.75
2023-04-22T05:41:21.170Z,4.38
2023-04-22T05:44:09.677Z,4.57
2023-04-22T05:46:58.116Z,4.70
2023-04-22T05:49:48.974Z,4.55
2023-04-22T05:52:49.335Z,4.85
2023-04-22T05:55:39.255Z,4.15
2023-04-22T05:58:31.309Z,4.60
2023-04-22T06:01:24.878Z,5.07
2023-04-22T06:04:23.737Z,4.22
2023-04-22T06:07:12.637Z,4.63
2023-04-22T06:10:04.970Z,5.10
2023-04-22T06:12:54.178Z,4.80
2023-04-22T06:15:44.221Z,5.07
2023-04-22T06:18:33.548Z,5.40
2023-04-22T06:21:23.035Z,4.97
2023-04-22T06:24:11.701Z,4.80
2023-04-22T06:27:00.113Z,5.18
2023-04-22T06:29:51.114Z,5.13
2023-04-22T06:32:41.258Z,5.15
2023-04-22T06:35:29.736Z,5.25
2023-04-22T06:38:18.180Z,4.85
2023-04-22T06:41:29.431Z,4.90
2023-04-22T06:44:22.953Z,5.95
2023-04-22T06:47:27.001Z,4.93
2023-04-22T06:50:30.788Z,5.43
2023-04-22T06:53:20.285Z,5.30
2023-04-22T06:56:09.143Z,4.90
2023-04-22T06:58:57.648Z,5.35
2023-04-22T07:01:46.282Z,4.93
2023-04-22T07:04:35.056Z,5.22
2023-04-22T07:07:25.319Z,5.50
2023-04-22T07:10:14.812Z,5.20
2023-04-22T07:13:12.514Z,5.00
2023-04-22T07:16:01.431Z,5.38
2023-04-22T07:18:50.103Z,5.25
2023-04-22T07:21:38.606Z,5.15
2023-04-22T07:24:28.406Z,5.18
2023-04-22T07:27:17.307Z,5.20
2023-04-22T07:30:08.730Z,5.07
2023-04-22T07:32:57.191Z,4.82
2023-04-22T07:35:45.720Z,4.88
2023-04-22T07:38:34.424Z,5.93
2023-04-22T07:41:24.195Z,5.47
2023-04-22T07:44:16.444Z,4.57
2023-04-22T07:47:05.289Z,5.45
2023-04-22T07:49:53.930Z,5.05
2023-04-22T07:52:42.475Z,4.85
2023-04-22T07:55:30.920Z,4.63
2023-04-22T07:58:20.887Z,4.50
2023-04-22T08:01:09.591Z,5.00
2023-04-22T08:04:23.139Z,4.43
2023-04-22T08:11:00.877Z,3.90
2023-04-22T08:13:51.160Z,3.90
2023-04-22T08:16:40.847Z,3.95
2023-04-22T08:19:29.572Z,3.22
2023-04-22T08:22:18.978Z,3.47
2023-04-22T08:25:09.347Z,3.58
2023-04-22T08:27:57.938Z,3.13
2023-04-22T08:30:47.968Z,3.35
2023-04-22T08:33:46.088Z,3.30
2023-04-22T08:41:24.584Z,3.35
2023-04-22T08:44:14.960Z,3.45
2023-04-22T08:47:05.910Z,3.15
2023-04-22T08:49:56.962Z,2.80
2023-04-22T08:52:51.540Z,3.00
2023-04-22T08:55:44.794Z,2.60
2023-04-22T08:58:37.785Z,2.50
2023-04-22T09:01:32.426Z,2.75
2023-04-22T09:05:03.452Z,2.65
2023-04-22T09:07:52.407Z,2.95
2023-04-22T09:10:41.208Z,2.30
2023-04-22T09:13:31.150Z,2.65
2023-04-22T09:16:19.620Z,2.65
2023-04-22T09:19:33.369Z,2.70
2023-04-22T09:27:27.252Z,2.60
2023-04-22T09:30:16.007Z,1.90
2023-04-22T09:33:06.942Z,2.33
2023-04-22T09:35:57.351Z,2.08
2023-04-22T09:39:26.278Z,1.75
2023-04-22T09:42:14.862Z,1.75
2023-04-22T09:45:05.565Z,1.77
2023-04-22T09:47:55.085Z,1.92
2023-04-22T09:50:46.800Z,1.85
2023-04-22T09:53:39.004Z,1.88
2023-04-22T09:56:48.064Z,1.88
2023-04-22T09:59:36.737Z,1.60
2023-04-22T10:02:31.805Z,2.10
2023-04-22T10:05:20.798Z,2.00
2023-04-22T10:08:17.084Z,2.10
2023-04-22T10:11:05.760Z,1.70
2023-04-22T10:13:54.343Z,1.80
2023-04-22T10:16:47.340Z,1.80
2023-04-22T10:19:38.556Z,1.75
2023-04-22T10:22:29.318Z,1.52
2023-04-22T10:25:24.522Z,1.95
2023-04-22T10:28:14.472Z,2.20
2023-04-22T10:31:07.934Z,1.70
2023-04-22T10:34:13.031Z,1.63
2023-04-22T10:37:09.081Z,1.70
2023-04-22T10:40:11.612Z,2.00
2023-04-22T10:43:03.608Z,1.90
2023-04-22T10:45:52.092Z,2.08
2023-04-22T10:48:51.933Z,1.80
2023-04-22T10:51:41.219Z,1.70
2023-04-22T10:55:03.439Z,1.75
2023-04-22T10:57:54.986Z,1.88
2023-04-22T11:00:53.179Z,1.60
2023-04-22T11:03:45.127Z,1.70
2023-04-22T11:07:17.175Z,1.90
2023-04-22T11:45:33.502Z,1.88
2023-04-22T11:49:08.593Z,2.15
2023-04-22T11:53:12.077Z,1.83
2023-04-22T11:56:49.796Z,1.98
2023-04-22T12:04:15.828Z,2.03
2023-04-22T12:14:35.336Z,1.80
2023-04-22T12:17:25.485Z,1.80
2023-04-22T12:20:15.991Z,1.88
2023-04-22T12:23:05.823Z,2.13
2023-04-22T12:25:54.217Z,2.03
2023-04-22T12:28:44.345Z,1.90
2023-04-22T12:31:33.264Z,1.75
2023-04-22T12:34:22.260Z,1.70
2023-04-22T12:37:12.494Z,1.90
2023-04-22T12:40:00.932Z,1.63
2023-04-22T12:42:49.479Z,1.90
2023-04-22T12:45:38.058Z,1.83
2023-04-22T12:48:26.519Z,1.83
2023-04-22T12:51:14.977Z,1.75
2023-04-22T12:54:05.413Z,1.75
2023-04-22T12:56:53.899Z,2.30
2023-04-22T12:59:42.555Z,2.10
2023-04-22T13:02:31.221Z,2.13
2023-04-22T13:05:26.690Z,2.45
2023-04-22T13:08:15.245Z,1.85
2023-04-22T13:11:05.214Z,1.90
2023-04-22T13:13:53.745Z,2.28
2023-04-22T13:16:42.445Z,2.10
2023-04-22T13:19:31.864Z,1.80
2023-04-22T13:22:20.647Z,2.10
2023-04-22T13:25:12.585Z,2.10
2023-04-22T13:28:02.533Z,2.30
2023-04-22T13:30:51.334Z,2.00
2023-04-22T13:33:39.872Z,2.38
2023-04-22T13:36:28.273Z,2.20
2023-04-22T13:39:17.781Z,2.22
2023-04-22T13:42:06.366Z,2.38
2023-04-22T13:44:56.174Z,2.00
2023-04-22T13:47:44.681Z,1.83
2023-04-22T13:50:34.096Z,2.03
2023-04-22T13:53:22.852Z,2.10
2023-04-22T13:56:11.466Z,2.08
2023-04-22T13:59:00.402Z,2.22
2023-04-22T14:01:50.314Z,2.00
2023-04-22T14:04:38.842Z,1.92
2023-04-22T14:07:27.352Z,1.88
2023-04-22T14:10:17.787Z,2.10
2023-04-22T14:13:06.934Z,2.35
2023-04-22T14:15:55.780Z,2.00
2023-04-22T14:18:46.423Z,2.05
2023-04-22T14:21:40.809Z,1.98
2023-04-22T14:24:29.902Z,2.08
2023-04-22T14:27:18.510Z,2.47
2023-04-22T14:30:09.105Z,2.33
2023-04-22T14:32:58.370Z,2.13
2023-04-22T14:35:48.323Z,2.00
2023-04-22T14:38:36.760Z,1.77
2023-04-22T14:41:26.244Z,2.05
2023-04-22T14:44:15.789Z,2.00
2023-04-22T14:47:04.556Z,2.03
2023-04-22T14:49:53.018Z,2.53
2023-04-22T14:52:43.036Z,2.10
2023-04-22T14:55:32.097Z,2.35
2023-04-22T14:58:20.667Z,2.28
2023-04-22T15:01:09.190Z,2.00
2023-04-22T15:03:59.755Z,2.10
2023-04-22T15:06:48.333Z,2.35
2023-04-22T15:09:38.372Z,2.03
2023-04-22T15:12:27.162Z,2.08
2023-04-22T15:15:15.753Z,2.20
2023-04-22T15:18:06.713Z,1.88
2023-04-22T15:20:55.314Z,1.90
2023-04-22T15:49:50.966Z,1.80
2023-04-22T15:53:05.089Z,1.75
2023-04-22T15:56:01.526Z,1.58
2023-04-22T16:08:18.805Z,1.75
2023-04-22T16:49:56.911Z,2.20
2023-04-22T17:52:07.024Z,2.53
2023-04-22T17:55:12.515Z,2.47
2023-04-22T17:58:13.682Z,2.42
2023-04-22T19:27:41.647Z,2.55
2023-04-22T19:35:18.770Z,2.63
2023-04-22T19:39:12.615Z,2.75
2023-04-22T19:42:32.471Z,2.53
2023-04-22T19:46:13.371Z,3.10
2023-04-22T19:49:20.545Z,3.22
2023-04-22T19:52:52.260Z,2.55
2023-04-22T19:56:25.025Z,2.85
2023-04-22T19:59:42.955Z,3.20
2023-04-22T20:03:17.656Z,2.80
2023-04-22T20:06:41.418Z,2.78
2023-04-22T20:18:52.892Z,2.97
2023-04-22T20:22:08.434Z,3.17
2023-04-22T20:25:29.236Z,3.70
2023-04-22T20:29:14.813Z,3.22
2023-04-22T20:32:14.003Z,3.28
2023-04-22T20:53:30.207Z,5.15
2023-04-22T20:56:19.475Z,4.78
2023-04-22T20:59:07.887Z,5.57
2023-04-22T21:01:57.517Z,5.55
2023-04-22T21:04:46.975Z,6.25
2023-04-22T21:07:39.754Z,5.90
2023-04-22T21:10:31.477Z,5.97
2023-04-22T21:13:20.629Z,5.32
2023-04-22T21:16:10.974Z,6.18
2023-04-22T21:19:01.598Z,6.03
2023-04-22T21:21:53.627Z,6.68
2023-04-22T21:24:42.861Z,6.30
2023-04-22T21:27:33.861Z,6.70
2023-04-22T21:30:23.683Z,6.72
2023-04-22T21:33:15.312Z,7.05
2023-04-22T21:36:04.216Z,6.75
2023-04-22T21:38:52.822Z,7.57
2023-04-22T21:41:41.641Z,8.43
2023-04-22T21:44:31.388Z,9.00
2023-04-22T21:47:22.660Z,8.82
2023-04-22T21:50:12.144Z,9.52
2023-04-22T21:53:01.106Z,9.68
2023-04-22T21:55:49.621Z,12.10
2023-04-22T21:58:38.452Z,11.43
2023-04-22T22:01:28.237Z,10.88
2023-04-22T22:04:19.748Z,10.75
2023-04-22T22:07:09.640Z,11.02
2023-04-22T22:09:58.035Z,10.63
2023-04-22T22:12:46.852Z,11.25
2023-04-22T22:15:35.928Z,11.77
2023-04-22T22:18:25.955Z,10.68
2023-04-22T22:21:14.300Z,10.50
2023-04-22T22:24:02.599Z,11.55
2023-04-22T22:26:50.904Z,10.77
2023-04-22T22:29:40.742Z,11.43
2023-04-22T22:32:29.398Z,11.82
2023-04-22T22:35:19.186Z,11.00
2023-04-22T22:38:07.490Z,11.13
2023-04-22T22:40:55.858Z,11.68
2023-04-22T22:43:44.190Z,11.32
2023-04-22T22:46:32.610Z,11.52
2023-04-22T22:49:20.985Z,11.18
2023-04-22T22:52:11.707Z,11.30
2023-04-22T22:55:00.145Z,11.20
2023-04-22T22:57:48.527Z,10.52
2023-04-22T23:00:37.770Z,11.75
2023-04-22T23:03:26.807Z,11.85
2023-04-22T23:06:15.654Z,13.77
2023-04-22T23:09:05.969Z,12.85
2023-04-22T23:11:55.444Z,14.88
2023-04-22T23:14:44.197Z,14.20
2023-04-22T23:17:32.621Z,15.95
2023-04-22T23:20:22.969Z,15.32
2023-04-22T23:23:13.656Z,15.90
2023-04-22T23:26:04.138Z,14.02
2023-04-22T23:28:53.368Z,15.15
2023-04-22T23:31:43.302Z,15.02
2023-04-22T23:34:35.097Z,16.05
2023-04-22T23:37:28.839Z,16.70
2023-04-22T23:40:17.498Z,15.95
2023-04-22T23:43:07.269Z,15.38
2023-04-22T23:46:05.887Z,14.25
2023-04-22T23:48:54.382Z,14.57
2023-04-22T23:51:42.873Z,14.52
2023-04-22T23:54:31.916Z,14.65
2023-04-22T23:57:21.388Z,14.07
